Time;durP1;ratioP1;P1;durP2;ratioP2;P2;SDS_P1;SDS_P2;PMS_P1;PMS_P2;Temp;Humidity;BMP_temperature;BMP_pressure;BME280_temperature;BME280_humidity;BME280_pressure;Samples;Min_cycle;Max_cycle;Signal;HPM_P1;HPM_P2
2023/06/13 00:00:47;;;;;;;25.93;19.20;;;;;;;;;;5078332;28;20063;-64
2023/06/13 00:03:14;;;;;;;;;;;;;;;;;;5075372;28;20156;-64
2023/06/13 00:05:46;;;;;;;24.77;19.40;;;;;;;;;;5059662;28;19931;-64
2023/06/13 00:08:21;;;;;;;23.80;19.38;;;;;;;;;;5068687;28;20492;-64
2023/06/13 00:10:48;;;;;;;25.02;19.92;;;;;;;;;;5077666;28;20122;-64
2023/06/13 00:13:15;;;;;;;21.75;18.67;;;;;;;;;;5077773;28;20044;-64
2023/06/13 00:15:42;;;;;;;;;;;;;;;;;;5078343;28;20131;-64
2023/06/13 00:18:08;;;;;;;20.67;18.52;;;;;;;;;;5078179;28;19924;-64
2023/06/13 00:20:35;;;;;;;23.75;19.35;;;;;;;;;;5077794;28;20549;-64
2023/06/13 00:23:03;;;;;;;62.67;54.85;;;;;;;;;;5064115;28;20432;-64
2023/06/13 00:25:30;;;;;;;63.67;57.00;;;;;;;;;;5050521;28;20396;-64
2023/06/13 00:27:56;;;;;;;91.63;82.25;;;;;;;;;;5077671;28;20067;-64
2023/06/13 00:30:23;;;;;;;68.35;61.17;;;;;;;;;;5077887;28;20048;-64
2023/06/13 00:32:49;;;;;;;101.38;91.57;;;;;;;;;;5077791;28;20507;-65
2023/06/13 00:35:16;;;;;;;104.15;94.25;;;;;;;;;;5077659;28;20044;-64
2023/06/13 00:37:42;;;;;;;83.32;75.43;;;;;;;;;;5077833;28;20048;-65
2023/06/13 00:40:09;;;;;;;80.10;72.47;;;;;;;;;;5077666;28;20499;-65
2023/06/13 00:42:37;;;;;;;78.05;70.65;;;;;;;;;;5077722;28;20101;-65
2023/06/13 00:45:17;;;;;;;70.07;63.58;;;;;;;;;;5077730;28;20048;-64
2023/06/13 00:47:45;;;;;;;66.55;60.30;;;;;;;;;;5077665;28;20040;-64
2023/06/13 00:50:12;;;;;;;69.78;63.00;;;;;;;;;;5077685;28;20052;-64
2023/06/13 00:52:39;;;;;;;53.08;47.67;;;;;;;;;;5077884;28;20056;-65
2023/06/13 00:55:06;;;;;;;41.58;37.30;;;;;;;;;;5077788;28;20055;-64
2023/06/13 00:57:33;;;;;;;43.08;38.72;;;;;;;;;;5077658;28;20052;-64
2023/06/13 01:00:04;;;;;;;49.88;44.95;;;;;;;;;;5077542;28;20052;-64
2023/06/13 01:02:32;;;;;;;52.47;47.45;;;;;;;;;;5074078;28;20070;-64
2023/06/13 01:05:02;;;;;;;56.40;50.75;;;;;;;;;;5074241;28;20040;-64
2023/06/13 01:07:33;;;;;;;61.00;54.80;;;;;;;;;;5074150;28;20413;-64
2023/06/13 01:10:00;;;;;;;56.00;50.63;;;;;;;;;;5074276;28;20060;-64
2023/06/13 01:12:33;;;;;;;51.67;46.33;;;;;;;;;;5074295;28;20044;-64
2023/06/13 01:15:11;;;;;;;52.28;46.83;;;;;;;;;;5074046;28;20545;-64
2023/06/13 01:17:41;;;;;;;42.53;38.22;;;;;;;;;;5074000;28;20064;-64
2023/06/13 01:20:10;;;;;;;40.30;36.10;;;;;;;;;;5074142;28;20056;-64
2023/06/13 01:22:45;;;;;;;42.38;38.28;;;;;;;;;;5073880;28;20044;-64
2023/06/13 01:25:21;;;;;;;42.42;37.28;;;;;;;;;;5074115;28;20048;-64
2023/06/13 01:27:50;;;;;;;52.17;46.60;;;;;;;;;;5073780;28;20488;-64
2023/06/13 01:30:18;;;;;;;96.40;84.95;;;;;;;;;;5073999;28;20052;-64
2023/06/13 01:32:46;;;;;;;78.75;68.80;;;;;;;;;;5074047;28;20055;-64
2023/06/13 01:35:13;;;;;;;70.72;61.92;;;;;;;;;;5073817;28;20052;-65
2023/06/13 01:37:40;;;;;;;64.35;56.28;;;;;;;;;;5069741;28;20440;-64
2023/06/13 01:40:07;;;;;;;89.97;80.10;;;;;;;;;;5064258;28;20102;-65
2023/06/13 01:42:34;;;;;;;96.72;86.35;;;;;;;;;;5055600;28;20519;-64
2023/06/13 01:45:02;;;;;;;98.78;88.18;;;;;;;;;;5073491;28;20167;-64
2023/06/13 01:47:41;;;;;;;107.07;95.85;;;;;;;;;;5073802;28;20405;-65
2023/06/13 01:50:12;;;;;;;113.32;101.13;;;;;;;;;;5073781;28;20052;-65
2023/06/13 01:52:41;;;;;;;111.85;100.28;;;;;;;;;;5073372;28;20408;-64
2023/06/13 01:55:16;;;;;;;106.03;95.38;;;;;;;;;;5073270;28;20087;-65
2023/06/13 01:57:51;;;;;;;123.72;110.72;;;;;;;;;;5073462;28;20057;-64
2023/06/13 02:00:19;;;;;;;94.90;85.13;;;;;;;;;;5073293;28;20048;-65
2023/06/13 02:02:46;;;;;;;116.75;104.82;;;;;;;;;;5073043;28;20055;-65
2023/06/13 02:05:13;;;;;;;127.28;113.90;;;;;;;;;;5073098;28;20102;-64
2023/06/13 02:07:40;;;;;;;95.87;85.97;;;;;;;;;;5073224;28;20040;-64
2023/06/13 02:10:07;;;;;;;54.20;48.70;;;;;;;;;;5066162;28;20102;-65
2023/06/13 02:12:33;;;;;;;52.75;47.20;;;;;;;;;;5072150;28;20063;-64
2023/06/13 02:15:02;;;;;;;53.95;48.53;;;;;;;;;;5072625;28;20121;-64
2023/06/13 02:17:29;;;;;;;50.67;45.53;;;;;;;;;;5073020;28;20052;-64
2023/06/13 02:19:55;;;;;;;51.60;46.20;;;;;;;;;;5073050;28;20507;-64
2023/06/13 02:22:22;;;;;;;54.70;48.75;;;;;;;;;;5072860;28;20052;-64
2023/06/13 02:24:49;;;;;;;61.38;54.90;;;;;;;;;;5072796;28;20197;-64
2023/06/13 02:27:15;;;;;;;91.07;81.60;;;;;;;;;;5072887;28;20047;-64
2023/06/13 02:29:44;;;;;;;129.50;114.68;;;;;;;;;;5072753;28;20446;-64
2023/06/13 02:32:10;;;;;;;114.30;102.15;;;;;;;;;;5072829;28;20045;-64
2023/06/13 02:34:37;;;;;;;103.47;92.47;;;;;;;;;;5055069;28;20067;-64
2023/06/13 02:37:03;;;;;;;98.88;88.32;;;;;;;;;;5072610;28;20488;-65
2023/06/13 02:39:30;;;;;;;77.18;68.90;;;;;;;;;;5072828;28;20484;-64
2023/06/13 02:41:56;;;;;;;78.55;70.00;;;;;;;;;;5072166;28;20044;-64
2023/06/13 02:44:23;;;;;;;74.97;67.05;;;;;;;;;;5072660;28;20056;-64
2023/06/13 02:46:49;;;;;;;73.57;64.40;;;;;;;;;;5071952;28;20064;-64
2023/06/13 02:49:16;;;;;;;73.13;65.55;;;;;;;;;;5072502;28;20044;-64
2023/06/13 02:51:42;;;;;;;71.40;61.28;;;;;;;;;;5071996;28;20492;-64
2023/06/13 02:54:09;;;;;;;63.90;56.97;;;;;;;;;;5072496;28;20044;-64
2023/06/13 02:56:36;;;;;;;60.15;53.72;;;;;;;;;;5072167;28;20060;-64
2023/06/13 02:59:02;;;;;;;;;;;;;;;;;;5072415;28;20553;-64
2023/06/13 03:01:29;;;;;;;59.00;49.47;;;;;;;;;;5072003;28;19925;-64
2023/06/13 03:03:56;;;;;;;54.40;45.10;;;;;;;;;;5072424;28;20117;-64
2023/06/13 03:06:24;;;;;;;54.92;46.70;;;;;;;;;;5054106;28;20048;-64
2023/06/13 03:08:52;;;;;;;76.30;59.75;;;;;;;;;;5071856;28;20601;-64
2023/06/13 03:11:18;;;;;;;;;;;;;;;;;;5072327;28;20052;-64
2023/06/13 03:13:45;;;;;;;67.68;54.78;;;;;;;;;;5071813;28;19920;-64
2023/06/13 03:16:12;;;;;;;71.35;55.97;;;;;;;;;;5072047;28;20052;-64
2023/06/13 03:18:38;;;;;;;154.27;109.47;;;;;;;;;;5071973;28;20052;-64
2023/06/13 03:21:05;;;;;;;105.13;82.78;;;;;;;;;;5071892;28;20090;-64
2023/06/13 03:23:31;;;;;;;146.88;103.45;;;;;;;;;;5071580;28;20131;-64
2023/06/13 03:25:58;;;;;;;139.52;102.95;;;;;;;;;;5071516;28;20048;-64
2023/06/13 03:28:24;;;;;;;149.80;108.45;;;;;;;;;;5071649;28;20049;-64
2023/06/13 03:30:51;;;;;;;173.48;123.30;;;;;;;;;;5071725;28;20048;-64
2023/06/13 03:33:18;;;;;;;166.48;127.13;;;;;;;;;;5071682;28;20048;-64
2023/06/13 03:35:44;;;;;;;154.40;117.72;;;;;;;;;;5072040;28;20068;-64
2023/06/13 03:38:12;;;;;;;135.95;110.72;;;;;;;;;;5071836;28;20059;-64
2023/06/13 03:40:38;;;;;;;227.75;191.25;;;;;;;;;;5071557;28;20075;-64
2023/06/13 03:43:04;;;;;;;215.20;188.30;;;;;;;;;;5071279;28;20043;-64
2023/06/13 03:45:31;;;;;;;229.45;189.85;;;;;;;;;;5071633;28;20101;-63
2023/06/13 03:47:57;;;;;;;151.40;114.55;;;;;;;;;;5071767;28;20041;-64
2023/06/13 03:50:24;;;;;;;85.43;63.90;;;;;;;;;;5071538;28;20084;-63
2023/06/13 03:52:50;;;;;;;37.28;32.03;;;;;;;;;;5071647;28;20055;-64
2023/06/13 03:55:18;;;;;;;221.30;167.93;;;;;;;;;;5071709;28;20044;-64
2023/06/13 03:57:45;;;;;;;257.70;205.10;;;;;;;;;;5071580;28;20056;-64
2023/06/13 04:00:12;;;;;;;194.27;159.00;;;;;;;;;;5071310;28;20053;-64
2023/06/13 04:02:40;;;;;;;72.50;63.53;;;;;;;;;;5071641;28;20060;-64
2023/06/13 04:05:07;;;;;;;168.82;142.27;;;;;;;;;;5071253;28;20138;-64
2023/06/13 04:07:37;;;;;;;;;;;;;;;;;;5071877;28;20079;-64
2023/06/13 04:10:03;;;;;;;161.88;141.73;;;;;;;;;;5071490;28;19921;-64
2023/06/13 04:12:30;;;;;;;175.93;154.10;;;;;;;;;;5071221;28;20052;-64
2023/06/13 04:14:57;;;;;;;180.90;161.02;;;;;;;;;;5071324;28;20056;-64
2023/06/13 04:17:23;;;;;;;153.93;137.15;;;;;;;;;;5071173;28;20488;-64
2023/06/13 04:19:50;;;;;;;146.63;130.48;;;;;;;;;;5071369;28;20132;-64
2023/06/13 04:22:16;;;;;;;130.23;116.47;;;;;;;;;;5071084;28;20178;-64
2023/06/13 04:24:43;;;;;;;123.03;109.65;;;;;;;;;;5071403;28;20437;-64
2023/06/13 04:27:13;;;;;;;123.70;110.97;;;;;;;;;;5071120;28;20047;-64
2023/06/13 04:29:43;;;;;;;106.25;95.28;;;;;;;;;;5071272;28;20076;-64
2023/06/13 04:32:13;;;;;;;102.70;91.82;;;;;;;;;;5071406;28;20472;-64
2023/06/13 04:34:52;;;;;;;84.85;76.00;;;;;;;;;;5071138;28;20044;-64
2023/06/13 04:37:30;;;;;;;79.97;71.50;;;;;;;;;;5073525;28;20151;-64
2023/06/13 04:39:57;;;;;;;55.10;49.22;;;;;;;;;;5074994;28;20048;-64
2023/06/13 04:42:27;;;;;;;74.00;65.97;;;;;;;;;;5074897;28;20553;-64
2023/06/13 04:44:58;;;;;;;57.40;51.30;;;;;;;;;;5074388;28;20576;-64
2023/06/13 04:47:29;;;;;;;49.95;44.55;;;;;;;;;;5074739;28;20056;-64
2023/06/13 04:50:16;;;;;;;51.58;43.72;;;;;;;;;;5074516;28;20071;-64
2023/06/13 04:52:42;;;;;;;64.05;57.28;;;;;;;;;;5074783;28;20098;-64
2023/06/13 04:55:09;;;;;;;60.60;54.03;;;;;;;;;;5074703;28;20049;-64
2023/06/13 04:57:36;;;;;;;73.28;63.53;;;;;;;;;;5074511;28;20086;-64
2023/06/13 05:00:07;;;;;;;70.10;60.80;;;;;;;;;;5074408;28;20597;-63
2023/06/13 05:02:35;;;;;;;105.20;94.10;;;;;;;;;;5074237;28;20056;-63
2023/06/13 05:05:02;;;;;;;;;;;;;;;;;;5073614;28;20084;-64
2023/06/13 05:07:30;;;;;;;151.52;135.80;;;;;;;;;;5074439;28;19920;-64
2023/06/13 05:09:56;;;;;;;284.83;255.38;;;;;;;;;;5074439;28;20484;-64
2023/06/13 05:12:22;;;;;;;121.43;108.78;;;;;;;;;;5074114;28;20097;-64
2023/06/13 05:14:49;;;;;;;120.90;108.57;;;;;;;;;;5074490;28;20491;-64
2023/06/13 05:17:16;;;;;;;57.78;51.78;;;;;;;;;;5074425;28;20059;-64
2023/06/13 05:19:43;;;;;;;103.47;92.22;;;;;;;;;;5074275;28;20455;-64
2023/06/13 05:22:09;;;;;;;104.88;93.57;;;;;;;;;;5073915;28;20049;-64
2023/06/13 05:24:36;;;;;;;97.82;87.75;;;;;;;;;;5073779;28;20044;-64
2023/06/13 05:27:03;;;;;;;143.80;128.97;;;;;;;;;;5073945;28;20044;-64
2023/06/13 05:29:29;;;;;;;149.77;133.98;;;;;;;;;;5073621;28;20480;-64
2023/06/13 05:31:57;;;;;;;112.63;100.80;;;;;;;;;;5074086;28;20044;-64
2023/06/13 05:34:24;;;;;;;150.48;134.73;;;;;;;;;;5073612;28;20054;-64
2023/06/13 05:36:50;;;;;;;189.17;169.67;;;;;;;;;;5073879;28;20053;-64
2023/06/13 05:39:18;;;;;;;249.52;224.48;;;;;;;;;;5073468;28;20052;-63
2023/06/13 05:41:44;;;;;;;183.80;164.88;;;;;;;;;;5073716;28;20052;-64
2023/06/13 05:44:13;;;;;;;196.35;176.68;;;;;;;;;;5073776;28;20171;-64
2023/06/13 05:46:41;;;;;;;318.35;284.83;;;;;;;;;;5073141;28;20055;-64
2023/06/13 05:49:08;;;;;;;294.52;262.17;;;;;;;;;;5073554;28;20053;-64
2023/06/13 05:51:36;;;;;;;179.68;160.57;;;;;;;;;;5073383;28;20048;-64
2023/06/13 05:54:03;;;;;;;169.02;151.40;;;;;;;;;;5073601;28;20052;-64
2023/06/13 05:56:32;;;;;;;108.65;96.93;;;;;;;;;;5073374;28;20056;-65
2023/06/13 05:58:59;;;;;;;44.13;39.78;;;;;;;;;;5073459;28;20059;-64
2023/06/13 06:01:25;;;;;;;33.53;30.30;;;;;;;;;;5073311;28;20052;-64
2023/06/13 06:03:51;;;;;;;28.33;25.73;;;;;;;;;;5073327;28;20036;-64
2023/06/13 06:06:18;;;;;;;26.13;23.40;;;;;;;;;;5073010;28;20049;-64
2023/06/13 06:08:45;;;;;;;25.83;23.13;;;;;;;;;;5072262;28;20280;-64
2023/06/13 06:11:11;;;;;;;25.73;23.17;;;;;;;;;;5072675;28;20044;-63
2023/06/13 06:13:38;;;;;;;27.02;24.33;;;;;;;;;;5073068;28;20438;-63
2023/06/13 06:16:04;;;;;;;27.98;25.27;;;;;;;;;;5063480;28;20049;-64
2023/06/13 06:18:31;;;;;;;27.30;24.70;;;;;;;;;;5068125;28;20055;-64
2023/06/13 06:20:57;;;;;;;29.93;27.00;;;;;;;;;;5072754;28;20157;-64
2023/06/13 06:23:24;;;;;;;28.67;25.77;;;;;;;;;;5072753;28;20435;-64
2023/06/13 06:25:51;;;;;;;28.48;25.77;;;;;;;;;;5070227;28;20040;-64
2023/06/13 06:28:17;;;;;;;25.48;22.92;;;;;;;;;;5052963;28;20055;-64
2023/06/13 06:30:44;;;;;;;24.38;21.92;;;;;;;;;;5066203;28;20048;-62
2023/06/13 06:33:10;;;;;;;23.92;21.83;;;;;;;;;;5052952;28;20110;-63
2023/06/13 06:35:37;;;;;;;23.90;21.55;;;;;;;;;;5052496;28;20071;-63
2023/06/13 06:38:03;;;;;;;24.05;21.70;;;;;;;;;;5052475;28;20056;-63
2023/06/13 06:40:30;;;;;;;23.00;20.67;;;;;;;;;;5052314;28;20574;-63
2023/06/13 06:42:56;;;;;;;23.40;21.20;;;;;;;;;;5063093;28;20045;-63
2023/06/13 06:45:22;;;;;;;21.83;19.98;;;;;;;;;;5072167;28;20056;-63
2023/06/13 06:47:50;;;;;;;22.50;20.30;;;;;;;;;;5072200;28;20455;-63
2023/06/13 06:50:17;;;;;;;22.27;20.27;;;;;;;;;;5072181;28;20048;-63
2023/06/13 06:52:44;;;;;;;21.27;19.27;;;;;;;;;;5071842;28;20106;-62
2023/06/13 06:55:11;;;;;;;21.07;19.07;;;;;;;;;;5058244;28;20277;-63
2023/06/13 06:57:37;;;;;;;20.33;18.55;;;;;;;;;;5072067;28;20052;-63
2023/06/13 07:00:05;;;;;;;18.77;17.02;;;;;;;;;;5071684;28;20052;-64
2023/06/13 07:02:32;;;;;;;18.63;17.02;;;;;;;;;;5072241;28;20052;-63
2023/06/13 07:04:58;;;;;;;18.83;17.13;;;;;;;;;;5072129;28;20045;-63
2023/06/13 07:07:25;;;;;;;17.57;16.07;;;;;;;;;;5071897;28;20086;-63
2023/06/13 07:09:52;;;;;;;17.35;15.75;;;;;;;;;;5072084;28;20055;-63
2023/06/13 07:12:18;;;;;;;16.00;14.60;;;;;;;;;;5072084;28;20055;-63
2023/06/13 07:14:45;;;;;;;14.02;12.60;;;;;;;;;;5072184;28;20056;-62
2023/06/13 07:17:11;;;;;;;14.90;13.33;;;;;;;;;;5071783;28;20056;-63
2023/06/13 07:19:38;;;;;;;13.80;12.68;;;;;;;;;;5071388;28;20053;-62
2023/06/13 07:22:04;;;;;;;11.68;10.55;;;;;;;;;;5071567;28;20055;-63
2023/06/13 07:24:32;;;;;;;9.88;9.00;;;;;;;;;;5071600;28;20059;-63
2023/06/13 07:26:58;;;;;;;10.18;9.38;;;;;;;;;;5071049;28;20071;-63
2023/06/13 07:29:25;;;;;;;9.87;8.97;;;;;;;;;;5071875;28;20045;-63
2023/06/13 07:31:51;;;;;;;10.43;9.50;;;;;;;;;;5071052;28;20480;-63
2023/06/13 07:34:18;;;;;;;9.83;8.93;;;;;;;;;;5071604;28;20058;-63
2023/06/13 07:37:04;;;;;;;10.13;8.98;;;;;;;;;;5071073;28;20091;-63
2023/06/13 07:39:31;;;;;;;10.48;9.50;;;;;;;;;;5071183;28;20051;-63
2023/06/13 07:41:57;;;;;;;10.60;9.60;;;;;;;;;;5071941;28;20048;-63
2023/06/13 07:44:24;;;;;;;10.87;9.87;;;;;;;;;;5071115;28;20308;-64
2023/06/13 07:46:51;;;;;;;;;;;;;;;;;;5071392;28;20683;-64
2023/06/13 07:49:17;;;;;;;9.60;8.82;;;;;;;;;;5071796;28;19920;-64
2023/06/13 07:51:44;;;;;;;9.47;8.77;;;;;;;;;;5071197;28;20056;-63
2023/06/13 07:54:10;;;;;;;9.27;8.50;;;;;;;;;;5071617;28;20696;-63
2023/06/13 07:56:37;;;;;;;9.03;8.27;;;;;;;;;;5071760;28;20059;-63
2023/06/13 07:59:03;;;;;;;9.00;8.10;;;;;;;;;;5064719;28;20342;-63
2023/06/13 08:01:30;;;;;;;8.07;7.28;;;;;;;;;;5059714;28;20290;-63
2023/06/13 08:03:56;;;;;;;7.45;6.75;;;;;;;;;;5068547;28;20555;-63
2023/06/13 08:06:23;;;;;;;7.78;7.07;;;;;;;;;;5071259;28;20488;-63
2023/06/13 08:08:50;;;;;;;7.50;6.57;;;;;;;;;;5071404;28;20484;-63
2023/06/13 08:11:16;;;;;;;7.78;7.07;;;;;;;;;;5073938;28;20060;-64
2023/06/13 08:13:43;;;;;;;7.72;6.90;;;;;;;;;;5075317;28;20057;-63
2023/06/13 08:16:09;;;;;;;8.05;7.25;;;;;;;;;;5075074;28;20109;-62
2023/06/13 08:18:37;;;;;;;7.55;6.72;;;;;;;;;;5069619;28;20407;-62
2023/06/13 08:21:03;;;;;;;8.02;7.20;;;;;;;;;;5075716;28;20056;-63
2023/06/13 08:23:30;;;;;;;7.95;6.65;;;;;;;;;;5075063;28;20044;-62
2023/06/13 08:25:56;;;;;;;7.72;7.03;;;;;;;;;;5075260;28;20048;-62
2023/06/13 08:28:23;;;;;;;7.80;7.05;;;;;;;;;;5061904;28;20049;-62
2023/06/13 08:30:50;;;;;;;7.97;7.03;;;;;;;;;;5072154;28;20056;-62
2023/06/13 08:33:16;;;;;;;9.43;7.68;;;;;;;;;;5075183;28;20048;-61
2023/06/13 08:35:43;;;;;;;7.75;7.00;;;;;;;;;;5075294;28;20450;-62
2023/06/13 08:38:11;;;;;;;8.10;7.43;;;;;;;;;;5075089;28;20044;-61
2023/06/13 08:40:39;;;;;;;7.22;6.63;;;;;;;;;;5074777;28;20076;-62
2023/06/13 08:43:05;;;;;;;7.60;7.00;;;;;;;;;;5074795;28;20048;-61
2023/06/13 08:45:32;;;;;;;7.68;6.93;;;;;;;;;;5074643;28;20106;-60
2023/06/13 08:47:59;;;;;;;7.88;7.28;;;;;;;;;;5074644;28;20052;-61
2023/06/13 08:50:26;;;;;;;7.50;6.78;;;;;;;;;;5074867;28;20049;-61
2023/06/13 08:52:54;;;;;;;7.65;7.05;;;;;;;;;;5074558;28;20060;-62
2023/06/13 08:55:22;;;;;;;7.85;7.03;;;;;;;;;;5074490;28;20105;-61
2023/06/13 08:57:52;;;;;;;6.70;6.10;;;;;;;;;;5074518;28;20522;-61
2023/06/13 09:00:19;;;;;;;7.75;6.85;;;;;;;;;;5074345;28;20044;-61
2023/06/13 09:02:46;;;;;;;7.95;7.00;;;;;;;;;;5057032;28;20071;-61
2023/06/13 09:05:17;;;;;;;;;;;;;;;;;;5074798;28;20048;-61
2023/06/13 09:07:47;;;;;;;6.95;6.25;;;;;;;;;;5074281;28;19928;-61
2023/06/13 09:10:14;;;;;;;6.57;5.97;;;;;;;;;;5074450;28;20048;-61
2023/06/13 09:12:42;;;;;;;7.50;6.80;;;;;;;;;;5074240;28;20690;-61
2023/06/13 09:15:10;;;;;;;7.82;6.45;;;;;;;;;;5074342;28;20415;-61
2023/06/13 09:17:37;;;;;;;7.53;6.95;;;;;;;;;;5074308;28;20048;-62
2023/06/13 09:20:07;;;;;;;7.57;6.10;;;;;;;;;;5056323;28;20298;-61
2023/06/13 09:22:37;;;;;;;7.35;5.85;;;;;;;;;;5073315;28;20056;-61
2023/06/13 09:25:04;;;;;;;6.40;5.80;;;;;;;;;;5073843;28;20049;-62
2023/06/13 09:27:31;;;;;;;6.63;5.78;;;;;;;;;;5074163;28;20052;-61
2023/06/13 09:29:58;;;;;;;;;;;;;;;;;;5074547;28;20045;-61
2023/06/13 09:32:24;;;;;;;;;;;;;;;;;;5074536;28;19982;-61
2023/06/13 09:34:51;;;;;;;5.50;5.00;;;;;;;;;;5073858;28;19926;-62
2023/06/13 09:37:17;;;;;;;;;;;;;;;;;;5074146;28;20051;-61
2023/06/13 09:39:50;;;;;;;7.15;5.30;;;;;;;;;;5073933;28;19933;-61
2023/06/13 09:42:31;;;;;;;6.20;5.50;;;;;;;;;;5073869;28;20048;-62
2023/06/13 09:45:00;;;;;;;5.65;5.22;;;;;;;;;;5073344;28;20051;-61
2023/06/13 09:47:27;;;;;;;6.45;5.15;;;;;;;;;;5073540;28;20045;-61
2023/06/13 09:49:54;;;;;;;;;;;;;;;;;;5073844;28;20401;-61
2023/06/13 09:52:23;;;;;;;5.60;5.10;;;;;;;;;;5073377;28;19925;-61
2023/06/13 09:54:50;;;;;;;5.53;5.03;;;;;;;;;;5073810;28;20048;-61
2023/06/13 09:57:17;;;;;;;5.68;5.18;;;;;;;;;;5073591;28;20048;-61
2023/06/13 09:59:46;;;;;;;5.38;4.75;;;;;;;;;;5073526;28;20058;-61
2023/06/13 10:02:12;;;;;;;5.60;5.10;;;;;;;;;;5073480;28;20048;-61
2023/06/13 10:04:40;;;;;;;5.53;5.07;;;;;;;;;;5073337;28;20407;-62
2023/06/13 10:07:06;;;;;;;5.05;4.63;;;;;;;;;;5073223;28;20053;-61
2023/06/13 10:09:33;;;;;;;5.88;5.20;;;;;;;;;;5073085;28;20048;-61
2023/06/13 10:12:00;;;;;;;6.28;5.10;;;;;;;;;;5073012;28;20048;-62
2023/06/13 10:14:27;;;;;;;5.35;4.95;;;;;;;;;;5073093;28;20537;-61
2023/06/13 10:16:59;;;;;;;5.88;5.38;;;;;;;;;;5073601;28;20050;-61
2023/06/13 10:19:37;;;;;;;5.45;5.05;;;;;;;;;;5072916;28;20082;-61
2023/06/13 10:22:05;;;;;;;5.43;5.00;;;;;;;;;;5072921;28;20565;-61
2023/06/13 10:24:33;;;;;;;5.78;5.07;;;;;;;;;;5072909;28;20040;-61
2023/06/13 10:27:01;;;;;;;6.10;4.50;;;;;;;;;;5072771;28;20098;-62
2023/06/13 10:29:46;;;;;;;5.47;5.07;;;;;;;;;;5072595;28;20492;-61
2023/06/13 10:32:12;;;;;;;5.70;4.72;;;;;;;;;;5073135;28;20076;-61
2023/06/13 10:34:55;;;;;;;5.45;4.95;;;;;;;;;;5071717;28;20586;-61
2023/06/13 10:37:53;;;;;;;5.60;5.10;;;;;;;;;;5072629;28;20053;-60
2023/06/13 10:40:38;;;;;;;4.82;4.30;;;;;;;;;;5072687;28;20152;-61
2023/06/13 10:43:13;;;;;;;4.72;4.32;;;;;;;;;;5072672;28;20051;-61
2023/06/13 10:45:43;;;;;;;7.03;4.90;;;;;;;;;;5072183;28;20053;-61
2023/06/13 10:48:09;;;;;;;4.88;4.43;;;;;;;;;;5072447;28;20048;-61
2023/06/13 10:50:37;;;;;;;4.82;4.50;;;;;;;;;;5072236;28;20053;-61
2023/06/13 10:53:04;;;;;;;4.65;4.22;;;;;;;;;;5072581;28;20408;-62
2023/06/13 10:55:32;;;;;;;5.07;4.68;;;;;;;;;;5072463;28;20586;-61
2023/06/13 10:58:00;;;;;;;6.30;5.53;;;;;;;;;;5060445;28;20451;-61
2023/06/13 11:00:30;;;;;;;5.55;5.00;;;;;;;;;;5072358;28;20055;-61
2023/06/13 11:03:01;;;;;;;5.30;4.80;;;;;;;;;;5072056;28;20056;-61
2023/06/13 11:05:27;;;;;;;4.57;4.25;;;;;;;;;;5071939;28;20136;-62
2023/06/13 11:08:11;;;;;;;6.13;5.20;;;;;;;;;;5072120;28;20094;-62
2023/06/13 11:10:38;;;;;;;6.30;5.70;;;;;;;;;;5072255;28;20102;-62
2023/06/13 11:13:15;;;;;;;6.82;6.10;;;;;;;;;;5072022;28;20059;-62
2023/06/13 11:15:41;;;;;;;6.00;5.50;;;;;;;;;;5054433;28;20048;-62
2023/06/13 11:18:13;;;;;;;5.63;5.13;;;;;;;;;;5072131;28;20094;-62
2023/06/13 11:20:49;;;;;;;4.65;4.25;;;;;;;;;;5072074;28;20056;-62
2023/06/13 11:23:22;;;;;;;5.55;4.43;;;;;;;;;;5071741;28;20056;-62
2023/06/13 11:25:49;;;;;;;5.18;4.80;;;;;;;;;;5071765;28;20055;-62
2023/06/13 11:28:17;;;;;;;5.32;5.03;;;;;;;;;;5071896;28;20079;-62
2023/06/13 11:30:44;;;;;;;5.95;5.43;;;;;;;;;;5071842;28;20469;-62
2023/06/13 11:33:11;;;;;;;6.25;5.75;;;;;;;;;;5071856;28;20044;-62
2023/06/13 11:35:39;;;;;;;6.20;5.60;;;;;;;;;;5071907;28;20052;-62
2023/06/13 11:38:09;;;;;;;8.25;5.50;;;;;;;;;;5071967;28;20056;-61
2023/06/13 11:40:39;;;;;;;6.68;5.72;;;;;;;;;;5071928;28;20055;-62
2023/06/13 11:43:06;;;;;;;7.07;5.13;;;;;;;;;;5071548;28;20565;-62
2023/06/13 11:45:33;;;;;;;6.28;3.90;;;;;;;;;;5071125;28;20118;-63
2023/06/13 11:48:00;;;;;;;4.40;3.80;;;;;;;;;;5071709;28;20051;-63
2023/06/13 11:50:27;;;;;;;4.15;3.38;;;;;;;;;;5071595;28;20049;-63
2023/06/13 11:53:07;;;;;;;5.90;3.63;;;;;;;;;;5054041;28;20056;-63
2023/06/13 11:55:34;;;;;;;3.67;3.38;;;;;;;;;;5048814;28;20053;-63
2023/06/13 11:58:01;;;;;;;3.45;3.20;;;;;;;;;;5051180;28;20439;-64
2023/06/13 12:00:47;;;;;;;17.27;5.20;;;;;;;;;;5051127;28;20049;-62
2023/06/13 12:03:13;;;;;;;15.32;5.13;;;;;;;;;;5050934;28;20106;-63
2023/06/13 12:05:40;;;;;;;3.10;2.88;;;;;;;;;;5050689;28;20076;-63
2023/06/13 12:08:06;;;;;;;19.90;5.88;;;;;;;;;;5050849;28;20056;-63
2023/06/13 12:10:33;;;;;;;7.30;3.80;;;;;;;;;;5049149;28;20126;-62
2023/06/13 12:12:59;;;;;;;6.32;3.50;;;;;;;;;;5036723;28;20049;-64
2023/06/13 12:15:26;;;;;;;3.40;3.20;;;;;;;;;;5050884;28;20053;-63
2023/06/13 12:17:55;;;;;;;17.50;4.63;;;;;;;;;;5050592;28;20562;-63
2023/06/13 12:20:24;;;;;;;10.85;4.07;;;;;;;;;;5050813;28;20049;-63
2023/06/13 12:22:57;;;;;;;17.60;4.78;;;;;;;;;;5051031;28;20055;-63
2023/06/13 12:25:33;;;;;;;3.58;3.28;;;;;;;;;;5050783;28;20045;-63
2023/06/13 12:28:01;;;;;;;3.53;3.20;;;;;;;;;;5050563;28;20041;-64
2023/06/13 12:30:35;;;;;;;5.18;3.25;;;;;;;;;;5041884;28;20444;-64
2023/06/13 12:33:04;;;;;;;3.53;3.22;;;;;;;;;;5043181;28;20052;-63
2023/06/13 12:35:31;;;;;;;3.50;3.25;;;;;;;;;;5070007;28;20123;-64
2023/06/13 12:38:01;;;;;;;3.67;3.08;;;;;;;;;;5070778;28;20049;-64
2023/06/13 12:40:31;;;;;;;3.10;2.70;;;;;;;;;;5070289;28;20420;-64
2023/06/13 12:43:01;;;;;;;3.25;2.90;;;;;;;;;;5070117;28;20071;-63
2023/06/13 12:45:28;;;;;;;3.13;2.83;;;;;;;;;;5053938;28;20382;-63
2023/06/13 12:47:55;;;;;;;2.47;2.28;;;;;;;;;;5061020;28;20123;-63
2023/06/13 12:50:23;;;;;;;2.53;2.33;;;;;;;;;;5069727;28;20055;-63
2023/06/13 12:53:02;;;;;;;2.50;2.30;;;;;;;;;;5069222;28;20048;-63
2023/06/13 12:55:28;;;;;;;3.70;2.30;;;;;;;;;;5070220;28;20060;-64
2023/06/13 12:57:56;;;;;;;3.50;2.78;;;;;;;;;;5061839;28;20045;-64
2023/06/13 13:00:23;;;;;;;3.35;2.40;;;;;;;;;;5068825;28;20052;-64
2023/06/13 13:02:50;;;;;;;3.53;2.47;;;;;;;;;;5070537;28;20098;-63
2023/06/13 13:05:17;;;;;;;2.97;2.70;;;;;;;;;;5066723;28;20080;-63
2023/06/13 13:07:43;;;;;;;5.57;2.60;;;;;;;;;;5073183;28;20045;-64
2023/06/13 13:10:10;;;;;;;5.03;3.00;;;;;;;;;;5057724;28;20049;-64
2023/06/13 13:12:36;;;;;;;3.47;2.85;;;;;;;;;;5073832;28;20048;-64
2023/06/13 13:15:03;;;;;;;3.25;2.90;;;;;;;;;;5073809;28;20381;-63
2023/06/13 13:17:29;;;;;;;3.25;2.95;;;;;;;;;;5073548;28;20098;-63
2023/06/13 13:19:56;;;;;;;3.10;2.90;;;;;;;;;;5072672;28;20052;-62
2023/06/13 13:22:23;;;;;;;3.08;2.78;;;;;;;;;;5073688;28;20146;-63
2023/06/13 13:24:50;;;;;;;3.03;2.83;;;;;;;;;;5073142;28;20481;-63
2023/06/13 13:27:16;;;;;;;4.55;3.30;;;;;;;;;;5073569;28;20127;-62
2023/06/13 13:29:43;;;;;;;4.25;3.95;;;;;;;;;;5073362;28;20063;-63
2023/06/13 13:32:10;;;;;;;4.28;3.40;;;;;;;;;;5073586;28;20040;-62
2023/06/13 13:34:36;;;;;;;3.58;3.30;;;;;;;;;;5063187;28;20078;-62
2023/06/13 13:37:03;;;;;;;4.13;3.40;;;;;;;;;;5072685;28;20045;-62
2023/06/13 13:39:29;;;;;;;4.38;3.53;;;;;;;;;;5073256;28;20045;-63
2023/06/13 13:41:56;;;;;;;3.88;3.58;;;;;;;;;;5073612;28;20152;-63
2023/06/13 13:44:24;;;;;;;4.65;3.70;;;;;;;;;;5073555;28;20044;-63
2023/06/13 13:46:51;;;;;;;4.28;3.75;;;;;;;;;;5073459;28;20064;-62
2023/06/13 13:49:17;;;;;;;4.88;3.97;;;;;;;;;;5073702;28;20047;-63
2023/06/13 13:51:46;;;;;;;4.40;4.10;;;;;;;;;;5073315;28;20048;-62
2023/06/13 13:54:12;;;;;;;4.32;3.92;;;;;;;;;;5073732;28;20075;-64
2023/06/13 13:56:39;;;;;;;4.60;4.20;;;;;;;;;;5073704;28;20059;-64
2023/06/13 13:59:05;;;;;;;4.60;4.20;;;;;;;;;;5073564;28;20093;-63
2023/06/13 14:01:32;;;;;;;5.97;4.05;;;;;;;;;;5073608;28;20052;-62
2023/06/13 14:03:59;;;;;;;4.63;4.35;;;;;;;;;;5073177;28;20052;-64
2023/06/13 14:06:26;;;;;;;5.57;4.85;;;;;;;;;;5073351;28;20068;-64
2023/06/13 14:08:52;;;;;;;5.25;4.75;;;;;;;;;;5073279;28;20399;-63
2023/06/13 14:11:25;;;;;;;6.65;5.15;;;;;;;;;;5072351;28;20071;-63
2023/06/13 14:13:52;;;;;;;5.25;4.85;;;;;;;;;;5072811;28;20055;-63
2023/06/13 14:16:21;;;;;;;5.18;4.68;;;;;;;;;;5073090;28;20442;-64
2023/06/13 14:18:47;;;;;;;5.15;4.75;;;;;;;;;;5072848;28;20052;-64
2023/06/13 14:21:14;;;;;;;5.97;5.38;;;;;;;;;;5045024;28;20102;-65
2023/06/13 14:23:41;;;;;;;7.40;5.35;;;;;;;;;;5072033;28;20084;-65
2023/06/13 14:26:07;;;;;;;5.43;5.03;;;;;;;;;;5072670;28;20403;-65
2023/06/13 14:28:34;;;;;;;5.50;5.10;;;;;;;;;;5072988;28;20060;-65
2023/06/13 14:31:00;;;;;;;6.53;5.80;;;;;;;;;;5072633;28;20041;-64
2023/06/13 14:33:27;;;;;;;6.28;5.68;;;;;;;;;;5072981;28;20377;-64